Time;durP1;ratioP1;P1;durP2;ratioP2;P2;SDS_P1;SDS_P2;PMS_P1;PMS_P2;Temp;Humidity;BMP_temperature;BMP_pressure;BME280_temperature;BME280_humidity;BME280_pressure;Samples;Min_cycle;Max_cycle;Signal;HPM_P1;HPM_P2
2023/11/16 00:02:19;;;;;;;1999.90;999.90;;;8.40;99.90;;;;;;4981093;28;20417;-75
2023/11/16 00:04:49;;;;;;;1999.90;999.90;;;8.40;99.90;;;;;;4997382;28;20508;-75
2023/11/16 00:07:16;;;;;;;1999.90;999.90;;;8.40;99.90;;;;;;4983174;28;20494;-75
2023/11/16 00:12:44;;;;;;;1999.90;999.90;;;8.70;99.90;;;;;;4987149;28;20841;-74
2023/11/16 00:15:11;;;;;;;1999.90;999.90;;;8.20;99.90;;;;;;4999858;28;20445;-75
2023/11/16 00:17:37;;;;;;;1999.90;999.90;;;8.20;99.90;;;;;;5020166;28;20423;-75
2023/11/16 00:20:04;;;;;;;1999.90;999.90;;;8.20;99.90;;;;;;5043312;28;20406;-74
2023/11/16 00:22:31;;;;;;;1999.90;999.90;;;8.10;99.90;;;;;;5024917;28;20427;-75
2023/11/16 00:24:57;;;;;;;1999.90;999.90;;;;;;;;;;5024958;28;20504;-74
2023/11/16 00:27:25;;;;;;;1999.90;999.90;;;8.00;99.90;;;;;;5042723;28;20464;-74
2023/11/16 00:29:55;;;;;;;1999.90;999.90;;;9.00;99.90;;;;;;5024735;28;20492;-75
2023/11/16 00:32:23;;;;;;;1999.90;999.90;;;8.00;99.90;;;;;;5042875;28;20436;-75
2023/11/16 00:34:49;;;;;;;1999.90;999.90;;;;;;;;;;5042676;28;20432;-75
2023/11/16 00:37:15;;;;;;;1999.90;999.90;;;;;;;;;;5043332;28;20927;-75
2023/11/16 00:39:41;;;;;;;1999.90;999.90;;;;;;;;;;5041720;28;20420;-75
2023/11/16 00:42:07;;;;;;;1999.90;999.90;;;;;;;;;;5041330;28;20887;-75
2023/11/16 00:44:34;;;;;;;1999.90;999.90;;;;;;;;;;5041291;28;20476;-75
2023/11/16 00:46:59;;;;;;;1999.90;999.90;;;8.10;99.90;;;;;;5041557;28;20412;-75
2023/11/16 00:49:25;;;;;;;1999.90;999.90;;;9.80;99.90;;;;;;5041108;28;20461;-75
2023/11/16 00:51:51;;;;;;;1999.90;999.90;;;9.20;99.90;;;;;;5042745;28;20172;-74
2023/11/16 00:54:17;;;;;;;1999.90;999.90;;;;;;;;;;5024193;28;20439;-75
2023/11/16 00:56:44;;;;;;;1999.90;999.90;;;;;;;;;;5040596;28;20403;-74
2023/11/16 00:59:10;;;;;;;1999.90;999.90;;;;;;;;;;5041573;28;20420;-75
2023/11/16 01:01:37;;;;;;;1999.90;999.90;;;;;;;;;;5040829;28;20408;-74
2023/11/16 01:04:04;;;;;;;1999.90;999.90;;;8.10;99.90;;;;;;5022912;28;20816;-74
2023/11/16 01:06:31;;;;;;;1999.90;999.90;;;8.10;99.90;;;;;;5042508;28;20815;-74
2023/11/16 01:08:57;;;;;;;1999.90;999.90;;;8.80;99.90;;;;;;5026560;28;20458;-75
2023/11/16 01:11:29;;;;;;;1999.90;999.90;;;9.20;99.90;;;;;;5025361;28;20925;-75
2023/11/16 01:14:16;;;;;;;1999.90;999.90;;;8.30;99.90;;;;;;5068248;22;20486;-75
2023/11/16 01:17:11;;;;;;;1999.90;999.90;;;8.20;99.90;;;;;;4956470;29;20445;-75
2023/11/16 01:19:45;;;;;;;1999.90;999.90;;;8.20;99.90;;;;;;4964956;29;20426;-75
2023/11/16 01:22:26;;;;;;;1999.90;999.90;;;8.20;99.90;;;;;;4963700;28;20422;-75
2023/11/16 01:24:54;;;;;;;1999.90;999.90;;;8.20;99.90;;;;;;4961419;29;21124;-75
2023/11/16 01:27:26;;;;;;;1999.90;999.90;;;9.10;99.90;;;;;;4971542;28;20446;-74
2023/11/16 01:29:54;;;;;;;1999.90;999.90;;;8.20;99.90;;;;;;5003275;28;20496;-75
2023/11/16 01:32:56;;;;;;;1999.90;999.90;;;8.20;99.90;;;;;;4986989;28;20409;-75
2023/11/16 01:35:22;;;;;;;1999.90;999.90;;;9.60;99.90;;;;;;5012813;28;20442;-75
2023/11/16 01:37:50;;;;;;;1999.90;999.90;;;10.40;99.90;;;;;;5018654;28;20438;-74
2023/11/16 01:40:18;;;;;;;1999.90;999.90;;;8.30;99.90;;;;;;5002515;28;20912;-74
2023/11/16 01:42:57;;;;;;;1999.90;999.90;;;8.40;99.90;;;;;;4987393;28;20491;-75
2023/11/16 01:45:34;;;;;;;1999.90;999.90;;;8.30;99.90;;;;;;5002692;28;20731;-75
2023/11/16 01:48:12;;;;;;;1999.90;999.90;;;8.30;99.90;;;;;;5018659;28;20978;-74
2023/11/16 01:50:44;;;;;;;1999.90;999.90;;;8.10;99.90;;;;;;5003095;28;20420;-75
2023/11/16 01:53:22;;;;;;;1999.90;999.90;;;8.20;99.90;;;;;;5002714;28;20413;-74
2023/11/16 02:01:36;;;;;;;1999.90;999.90;;;8.50;99.90;;;;;;5005072;28;20424;-75
2023/11/16 02:04:31;;;;;;;1999.90;999.90;;;8.30;99.90;;;;;;5003140;28;20452;-75
2023/11/16 02:07:24;;;;;;;1999.90;999.90;;;8.30;99.90;;;;;;4963253;29;20433;-74
2023/11/16 02:09:51;;;;;;;1999.90;999.90;;;8.30;99.90;;;;;;4958098;29;20431;-75
2023/11/16 02:12:57;;;;;;;1999.90;999.90;;;8.40;99.90;;;;;;4915991;29;20510;-75
2023/11/16 02:15:58;;;;;;;1999.90;999.90;;;9.20;99.90;;;;;;4963667;29;20501;-74
2023/11/16 02:18:29;;;;;;;1999.90;999.90;;;8.40;99.90;;;;;;4936009;29;20432;-75
2023/11/16 02:20:56;;;;;;;1999.90;999.90;;;8.40;99.90;;;;;;4932017;29;20432;-75
2023/11/16 02:26:00;;;;;;;1999.90;999.90;;;8.40;99.90;;;;;;5061217;28;20482;-75
2023/11/16 02:28:30;;;;;;;1999.90;999.90;;;8.40;99.90;;;;;;5064796;28;20460;-75
2023/11/16 02:31:07;;;;;;;1999.90;999.90;;;8.40;99.90;;;;;;5046366;28;20446;-74
2023/11/16 02:37:38;;;;;;;1999.90;999.90;;;8.40;99.90;;;;;;5020923;28;20429;-74
2023/11/16 02:40:09;;;;;;;1999.90;999.90;;;7.50;99.90;;;;;;5063804;28;20423;-75
2023/11/16 02:45:53;;;;;;;1999.90;999.90;;;8.50;99.90;;;;;;5202275;22;20509;-75
2023/11/16 02:56:18;;;;;;;1999.90;999.90;;;8.30;99.90;;;;;;4981317;28;20418;-74
2023/11/16 02:59:15;;;;;;;1999.90;999.90;;;8.50;99.90;;;;;;5020744;28;20422;-75
2023/11/16 03:05:55;;;;;;;1999.90;999.90;;;8.20;99.90;;;;;;5107959;22;20923;-75
2023/11/16 03:09:04;;;;;;;1999.90;999.90;;;8.40;99.90;;;;;;5062273;28;20470;-75
2023/11/16 03:12:41;;;;;;;1999.90;999.90;;;8.70;99.90;;;;;;5011881;28;20420;-75
2023/11/16 03:18:35;;;;;;;;;;;;;;;;;;;;;
2023/11/16 03:21:35;;;;;;;1999.90;999.90;;;8.60;99.90;;;;;;5063629;28;20441;-74
2023/11/16 03:31:44;;;;;;;1999.90;999.90;;;8.30;99.90;;;;;;4981513;28;20453;-75
2023/11/16 03:34:59;;;;;;;1999.90;999.90;;;8.20;99.90;;;;;;4941836;29;20445;-75
2023/11/16 03:38:03;;;;;;;1999.90;999.90;;;8.20;99.90;;;;;;4934966;28;20421;-75
2023/11/16 03:41:07;;;;;;;1999.90;999.90;;;8.00;99.90;;;;;;4886250;29;20513;-75
2023/11/16 03:44:14;;;;;;;1999.90;999.90;;;8.00;99.90;;;;;;4884914;29;20443;-75
2023/11/16 03:47:36;;;;;;;;;;;;;;;;;;;;;
2023/11/16 04:00:52;;;;;;;1999.90;999.90;;;8.00;99.90;;;;;;4909718;29;20506;-75
2023/11/16 04:04:24;;;;;;;1999.90;999.90;;;7.80;99.90;;;;;;4935652;28;20513;-75
2023/11/16 04:08:00;;;;;;;1999.90;999.90;;;9.60;99.90;;;;;;4893864;29;20426;-75
2023/11/16 04:10:52;;;;;;;1999.90;999.90;;;10.70;99.90;;;;;;4852965;29;20454;-75
2023/11/16 04:14:02;;;;;;;1999.90;999.90;;;8.10;99.90;;;;;;4955158;28;20687;-75
2023/11/16 04:17:15;;;;;;;1999.90;999.90;;;8.00;99.90;;;;;;4931410;29;20429;-75
2023/11/16 04:19:59;;;;;;;1999.90;999.90;;;9.90;99.90;;;;;;4926354;29;20443;-75
2023/11/16 04:28:48;;;;;;;1999.90;999.90;;;9.70;99.90;;;;;;5031182;28;20228;-75
2023/11/16 04:32:09;;;;;;;1999.90;999.90;;;9.70;99.90;;;;;;5031422;28;20784;-75
2023/11/16 04:34:36;;;;;;;1999.90;999.90;;;;;;;;;;5002570;28;20973;-75
2023/11/16 04:37:19;;;;;;;1999.90;999.90;;;8.10;99.90;;;;;;5031383;28;20414;-75
2023/11/16 04:39:45;;;;;;;1999.90;999.90;;;;;;;;;;5031308;28;20410;-75
2023/11/16 04:42:39;;;;;;;1999.90;999.90;;;8.10;99.90;;;;;;5031247;28;20769;-75
2023/11/16 04:45:07;;;;;;;1999.90;999.90;;;8.50;99.90;;;;;;5047345;22;20486;-75
2023/11/16 04:47:37;;;;;;;1999.90;999.90;;;8.00;99.90;;;;;;5031233;28;20764;-75
2023/11/16 04:50:06;;;;;;;1999.90;999.90;;;8.00;99.90;;;;;;5031277;28;20890;-75
2023/11/16 04:52:34;;;;;;;1999.90;999.90;;;8.00;99.90;;;;;;5031751;28;20634;-75
2023/11/16 04:55:00;;;;;;;1999.90;999.90;;;8.20;99.90;;;;;;5034653;28;20423;-75
2023/11/16 04:57:26;;;;;;;1999.90;999.90;;;7.90;99.90;;;;;;5034849;28;20403;-75
2023/11/16 04:59:53;;;;;;;1999.90;999.90;;;7.90;99.90;;;;;;5034732;28;20411;-75
2023/11/16 05:02:19;;;;;;;1999.90;999.90;;;8.00;99.90;;;;;;5034794;28;20776;-75
2023/11/16 05:04:45;;;;;;;1999.90;999.90;;;8.00;99.90;;;;;;5034413;28;20434;-75
2023/11/16 05:07:14;;;;;;;1999.90;999.90;;;8.10;99.90;;;;;;5034602;28;20414;-75
2023/11/16 05:09:41;;;;;;;1999.90;999.90;;;7.90;99.90;;;;;;5034532;28;20451;-75
2023/11/16 05:12:08;;;;;;;1999.90;999.90;;;7.90;99.90;;;;;;5034563;28;20413;-75
2023/11/16 05:14:34;;;;;;;1999.90;999.90;;;7.90;99.90;;;;;;5034289;28;20459;-75
2023/11/16 05:17:00;;;;;;;1999.90;999.90;;;7.90;99.90;;;;;;5034436;28;20401;-75
2023/11/16 05:19:25;;;;;;;1999.90;999.90;;;8.10;99.90;;;;;;5034363;28;20468;-75
2023/11/16 05:21:51;;;;;;;1999.90;999.90;;;7.90;99.90;;;;;;5034374;28;20412;-75
2023/11/16 05:24:17;;;;;;;1999.90;999.90;;;7.90;99.90;;;;;;5033946;28;20709;-75
2023/11/16 05:26:44;;;;;;;1999.90;999.90;;;7.90;99.90;;;;;;5034302;28;20783;-75
2023/11/16 05:29:10;;;;;;;1999.90;999.90;;;7.80;99.90;;;;;;5034138;28;20238;-75
2023/11/16 05:31:36;;;;;;;1999.90;999.90;;;7.80;99.90;;;;;;5034327;28;20408;-75
2023/11/16 05:34:03;;;;;;;1999.90;999.90;;;7.80;99.90;;;;;;5033870;28;20837;-75
2023/11/16 05:36:29;;;;;;;1999.90;999.90;;;7.70;99.90;;;;;;5034154;28;20478;-75
2023/11/16 05:38:58;;;;;;;1999.90;999.90;;;7.60;99.90;;;;;;5034086;28;20494;-75
2023/11/16 05:41:24;;;;;;;1999.90;999.90;;;7.40;99.90;;;;;;5033932;28;20255;-74
2023/11/16 05:43:51;;;;;;;1999.90;999.90;;;7.60;99.90;;;;;;5033605;28;20886;-75
2023/11/16 05:46:17;;;;;;;1999.90;999.90;;;7.60;99.90;;;;;;5033961;28;20172;-75
2023/11/16 05:48:43;;;;;;;1999.90;999.90;;;7.50;99.90;;;;;;5033898;28;20869;-75
2023/11/16 05:51:08;;;;;;;1999.90;999.90;;;7.70;99.90;;;;;;5033791;28;20438;-75
2023/11/16 05:53:34;;;;;;;1999.90;999.90;;;7.70;99.90;;;;;;5033876;28;20242;-75
2023/11/16 05:56:00;;;;;;;1999.90;999.90;;;7.80;99.90;;;;;;5033769;28;20160;-75
2023/11/16 05:58:25;;;;;;;1999.90;999.90;;;7.80;99.90;;;;;;5033779;28;20169;-75
2023/11/16 06:00:52;;;;;;;1999.90;999.90;;;7.80;99.90;;;;;;5033691;28;20524;-75
2023/11/16 06:03:25;;;;;;;1999.90;999.90;;;8.20;99.90;;;;;;5033512;28;20173;-75
2023/11/16 06:05:50;;;;;;;1999.90;999.90;;;7.90;99.90;;;;;;5032614;28;20407;-75
2023/11/16 06:08:17;;;;;;;1999.90;999.90;;;7.80;99.90;;;;;;5033476;28;20446;-75
2023/11/16 06:10:43;;;;;;;1999.90;999.90;;;7.90;99.90;;;;;;5033537;28;20430;-75
2023/11/16 06:13:09;;;;;;;1999.90;999.90;;;7.90;99.90;;;;;;5027150;28;20508;-75
2023/11/16 06:16:00;;;;;;;1999.90;999.90;;;7.80;99.90;;;;;;5060193;22;20223;-75
2023/11/16 06:19:10;;;;;;;;;;;;;;;;;;;;;
2023/11/16 06:24:45;;;;;;;1999.90;999.90;;;;;;;;;;5154656;22;20530;-75
2023/11/16 06:27:57;;;;;;;1999.90;999.90;;;8.00;99.90;;;;;;5032477;28;20419;-75
2023/11/16 06:33:57;;;;;;;1999.90;999.90;;;10.20;99.90;;;;;;5030483;28;20456;-75
2023/11/16 06:36:50;;;;;;;1999.90;999.90;;;8.40;99.90;;;;;;4963266;28;20464;-75
2023/11/16 06:39:39;;;;;;;1999.90;999.90;;;10.30;99.90;;;;;;5013017;28;20405;-75
2023/11/16 06:42:19;;;;;;;1999.90;999.90;;;8.00;99.90;;;;;;4993680;28;20433;-75
2023/11/16 06:44:52;;;;;;;1999.90;999.90;;;8.10;99.90;;;;;;5008781;28;20456;-75
2023/11/16 06:57:45;;;;;;;1999.90;999.90;;;7.90;99.90;;;;;;4992914;28;20500;-75
2023/11/16 07:04:33;;;;;;;1999.90;999.90;;;8.10;99.90;;;;;;5055771;23;21082;-75
2023/11/16 07:10:03;;;;;;;1999.90;999.90;;;8.40;99.90;;;;;;5012455;28;20542;-75
2023/11/16 07:12:52;;;;;;;1999.90;999.90;;;10.20;99.90;;;;;;5010477;28;20821;-75
2023/11/16 07:15:21;;;;;;;1999.90;999.90;;;;;;;;;;5003939;28;20432;-75
2023/11/16 07:18:06;;;;;;;1999.90;999.90;;;8.30;99.90;;;;;;5012484;28;20478;-75
2023/11/16 07:20:40;;;;;;;1999.90;999.90;;;7.30;99.90;;;;;;5011967;28;20414;-75
2023/11/16 07:23:06;;;;;;;1999.90;999.90;;;;;;;;;;5012404;28;20401;-75
2023/11/16 07:25:37;;;;;;;1999.90;999.90;;;;;;;;;;5012084;28;20431;-75
2023/11/16 07:28:04;;;;;;;1999.90;999.90;;;8.30;99.90;;;;;;5011531;28;20460;-75
2023/11/16 07:30:33;;;;;;;1999.90;999.90;;;;;;;;;;5012179;28;20423;-75
2023/11/16 07:33:03;;;;;;;1999.90;999.90;;;8.20;99.90;;;;;;5012036;28;20412;-75
2023/11/16 07:35:42;;;;;;;1999.90;999.90;;;8.50;99.90;;;;;;5011835;28;20435;-75
2023/11/16 07:41:44;;;;;;;1999.90;999.90;;;7.90;99.90;;;;;;5001375;28;20416;-75
2023/11/16 07:44:49;;;;;;;1999.90;999.90;;;9.40;99.90;;;;;;5010736;28;20967;-75
2023/11/16 07:48:03;;;;;;;1999.90;999.90;;;7.90;99.90;;;;;;4997757;28;20415;-75
2023/11/16 07:50:31;;;;;;;1999.90;999.90;;;;;;;;;;5011819;28;20412;-75
2023/11/16 07:53:09;;;;;;;1999.90;999.90;;;7.90;99.90;;;;;;5011644;28;20397;-75
2023/11/16 07:55:37;;;;;;;1999.90;999.90;;;9.40;99.90;;;;;;5011193;28;20413;-75
2023/11/16 07:58:48;;;;;;;1999.90;999.90;;;9.50;99.90;;;;;;5011538;28;20412;-75
2023/11/16 08:01:50;;;;;;;1999.90;999.90;;;6.70;99.90;;;;;;4994117;28;20416;-75
2023/11/16 08:07:54;;;;;;;1999.90;999.90;;;8.80;99.90;;;;;;5006263;28;20419;-75
2023/11/16 08:10:57;;;;;;;1999.90;999.90;;;9.70;99.90;;;;;;5011296;28;20470;-75
2023/11/16 08:13:27;;;;;;;1999.90;999.90;;;7.70;99.90;;;;;;5010622;28;20431;-75
2023/11/16 08:15:56;;;;;;;1999.90;999.90;;;;;;;;;;5011661;28;20409;-75
2023/11/16 08:18:41;;;;;;;1999.90;999.90;;;7.80;99.90;;;;;;5011824;28;20896;-75
2023/11/16 08:21:21;;;;;;;1999.90;999.90;;;9.00;99.90;;;;;;5011599;28;20408;-75
2023/11/16 08:30:30;;;;;;;1999.90;999.90;;;7.80;99.90;;;;;;4973784;28;20442;-75
2023/11/16 08:36:15;;;;;;;1999.90;999.90;;;7.90;99.90;;;;;;5043834;22;20930;-74
2023/11/16 08:39:24;;;;;;;1999.90;999.90;;;7.40;99.90;;;;;;4995636;28;20876;-74
2023/11/16 08:45:02;;;;;;;1999.90;999.90;;;9.90;99.90;;;;;;4998859;28;21003;-74
2023/11/16 08:48:03;;;;;;;1999.90;999.90;;;10.10;99.90;;;;;;4987886;28;20767;-74
2023/11/16 08:51:02;;;;;;;1999.90;999.90;;;9.20;99.90;;;;;;4994358;28;20437;-74
2023/11/16 08:53:55;;;;;;;1999.90;999.90;;;8.60;99.90;;;;;;5058110;23;20409;-74
2023/11/16 08:56:50;;;;;;;1999.90;999.90;;;8.00;99.90;;;;;;4994268;28;20420;-75
2023/11/16 08:59:18;;;;;;;1999.90;999.90;;;10.40;99.90;;;;;;4989077;28;20921;-75
2023/11/16 09:01:47;;;;;;;1999.90;999.90;;;8.80;99.90;;;;;;4995355;28;20853;-75
2023/11/16 09:04:55;;;;;;;1999.90;999.90;;;8.90;99.90;;;;;;4994976;28;20467;-75
2023/11/16 09:07:35;;;;;;;1999.90;999.90;;;8.80;99.90;;;;;;4987491;28;20753;-75
2023/11/16 09:13:20;;;;;;;1999.90;999.90;;;10.20;99.90;;;;;;4987451;28;20759;-75
2023/11/16 09:15:56;;;;;;;1999.90;999.90;;;9.90;99.90;;;;;;4988958;28;20510;-75
2023/11/16 09:18:26;;;;;;;1999.90;999.90;;;;;;;;;;4987481;28;20801;-74
2023/11/16 09:21:03;;;;;;;1999.90;999.90;;;8.70;99.90;;;;;;4995031;28;20489;-74
2023/11/16 09:30:53;;;;;;;;;;;;;;;;;;;;;
2023/11/16 09:45:29;;;;;;;1999.90;999.90;;;9.00;99.90;;;;;;5042438;22;20539;-75
2023/11/16 09:48:04;;;;;;;1999.90;999.90;;;10.40;99.90;;;;;;4995801;28;20406;-75
2023/11/16 09:50:52;;;;;;;1999.90;999.90;;;9.50;99.90;;;;;;4987448;28;20479;-75
2023/11/16 09:53:23;;;;;;;1999.90;999.90;;;;;;;;;;4994354;28;20831;-74
2023/11/16 09:56:03;;;;;;;1999.90;999.90;;;9.10;99.90;;;;;;5002089;28;20437;-75
2023/11/16 09:58:36;;;;;;;1999.90;999.90;;;10.20;99.90;;;;;;4987257;28;20413;-75
2023/11/16 10:01:10;;;;;;;1999.90;999.90;;;9.10;99.90;;;;;;4998500;28;20398;-75
2023/11/16 10:03:39;;;;;;;1999.90;999.90;;;10.90;99.90;;;;;;4982790;28;20454;-75
2023/11/16 10:06:10;;;;;;;1999.90;999.90;;;11.40;99.90;;;;;;4966878;28;20437;-74
2023/11/16 10:08:40;;;;;;;1999.90;999.90;;;9.20;99.90;;;;;;4982388;28;21123;-75
2023/11/16 10:11:09;;;;;;;1999.90;999.90;;;9.10;99.90;;;;;;4966392;28;20427;-75
2023/11/16 10:13:37;;;;;;;1999.90;999.90;;;9.10;99.90;;;;;;4966715;28;20472;-75
2023/11/16 10:16:09;;;;;;;1999.90;999.90;;;9.10;99.90;;;;;;4983407;28;20412;-75
2023/11/16 10:18:35;;;;;;;1999.90;999.90;;;7.80;99.90;;;;;;4982656;28;20982;-75
2023/11/16 10:21:05;;;;;;;1999.90;999.90;;;;;;;;;;4983395;28;20420;-75
2023/11/16 10:23:36;;;;;;;1999.90;999.90;;;9.30;99.90;;;;;;5000715;28;21003;-74
2023/11/16 10:26:05;;;;;;;1999.90;999.90;;;9.40;99.90;;;;;;4983955;28;20449;-75
2023/11/16 10:28:31;;;;;;;1999.90;999.90;;;9.50;99.90;;;;;;4994146;28;20499;-75
2023/11/16 10:30:58;;;;;;;1999.90;999.90;;;9.60;99.90;;;;;;4993745;28;20447;-75
2023/11/16 10:33:26;;;;;;;1999.90;999.90;;;9.60;99.90;;;;;;4993610;28;20162;-75
2023/11/16 10:35:56;;;;;;;1999.90;999.90;;;9.80;99.90;;;;;;4993385;28;20501;-75
2023/11/16 10:38:25;;;;;;;1999.90;999.90;;;9.80;99.90;;;;;;4993602;28;20775;-75
2023/11/16 10:40:52;;;;;;;1999.90;999.90;;;9.70;99.90;;;;;;4993458;28;20440;-75
2023/11/16 10:43:20;;;;;;;1999.90;999.90;;;9.90;99.90;;;;;;4993387;28;20408;-75
2023/11/16 10:45:47;;;;;;;1999.90;999.90;;;9.70;99.90;;;;;;4993131;28;20424;-75
2023/11/16 10:48:13;;;;;;;1999.90;999.90;;;9.70;99.90;;;;;;4993339;28;21029;-75
2023/11/16 10:50:42;;;;;;;1999.90;999.90;;;9.80;99.90;;;;;;4992899;28;20408;-75
2023/11/16 10:53:15;;;;;;;1999.90;999.90;;;9.80;99.90;;;;;;4993244;28;20499;-75
2023/11/16 10:55:44;;;;;;;1999.90;999.90;;;9.90;99.90;;;;;;4993358;28;20912;-75
2023/11/16 10:58:11;;;;;;;1999.90;999.90;;;9.90;99.90;;;;;;4993261;28;20439;-75
2023/11/16 11:00:41;;;;;;;1999.90;999.90;;;9.90;99.90;;;;;;4993181;28;20414;-75
2023/11/16 11:03:07;;;;;;;1999.90;999.90;;;10.10;99.90;;;;;;4993094;28;20406;-75
2023/11/16 11:05:36;;;;;;;1999.90;999.90;;;10.10;99.90;;;;;;4992845;28;20436;-75
2023/11/16 11:08:07;;;;;;;1999.90;999.90;;;10.10;99.90;;;;;;4993080;28;20459;-75
2023/11/16 11:10:36;;;;;;;1999.90;999.90;;;10.00;99.90;;;;;;4996205;28;20492;-74
2023/11/16 11:13:03;;;;;;;1999.90;999.90;;;9.90;99.90;;;;;;4987427;28;20422;-74
2023/11/16 11:15:35;;;;;;;1999.90;999.90;;;9.90;99.90;;;;;;4988353;28;20432;-75
2023/11/16 11:18:02;;;;;;;1999.90;999.90;;;10.00;99.90;;;;;;4987006;28;20416;-74
2023/11/16 11:20:31;;;;;;;1999.90;999.90;;;10.00;99.90;;;;;;4987635;28;20410;-74
2023/11/16 11:23:08;;;;;;;1999.90;999.90;;;10.00;99.90;;;;;;5005369;28;20408;-74
2023/11/16 11:25:38;;;;;;;1999.90;999.90;;;9.90;99.90;;;;;;4987518;28;20556;-75
2023/11/16 11:28:05;;;;;;;1999.90;999.90;;;9.90;99.90;;;;;;4988736;28;20459;-74
2023/11/16 11:30:32;;;;;;;1999.90;999.90;;;9.90;99.90;;;;;;4988797;28;20432;-74
2023/11/16 11:33:01;;;;;;;1999.90;999.90;;;9.90;99.90;;;;;;4987295;28;20411;-74
2023/11/16 11:35:27;;;;;;;1999.90;999.90;;;9.90;99.90;;;;;;4988007;28;20521;-74
2023/11/16 11:37:53;;;;;;;1999.90;999.90;;;;;;;;;;4986077;28;20424;-74
2023/11/16 11:40:25;;;;;;;1999.90;999.90;;;9.90;99.90;;;;;;5003083;28;20495;-75
2023/11/16 11:42:52;;;;;;;1999.90;999.90;;;9.90;99.90;;;;;;5004393;28;20409;-74
2023/11/16 11:45:20;;;;;;;1999.90;999.90;;;10.50;99.90;;;;;;5004785;28;20477;-74
2023/11/16 11:47:48;;;;;;;1999.90;999.90;;;9.90;99.90;;;;;;4986399;28;20467;-74
2023/11/16 11:50:24;;;;;;;1999.90;999.90;;;10.20;99.90;;;;;;5003521;28;20422;-74
2023/11/16 11:52:52;;;;;;;1999.90;999.90;;;9.70;99.90;;;;;;4986168;28;20483;-74
2023/11/16 11:55:23;;;;;;;1999.90;999.90;;;10.30;99.90;;;;;;5003428;28;20420;-74
2023/11/16 11:57:51;;;;;;;1999.90;999.90;;;9.90;99.90;;;;;;5004003;28;20408;-75
2023/11/16 12:00:16;;;;;;;1999.90;999.90;;;10.50;99.90;;;;;;4984799;28;21022;-75
2023/11/16 12:02:44;;;;;;;1999.90;999.90;;;9.80;99.90;;;;;;4985206;28;20445;-75
2023/11/16 12:05:17;;;;;;;1999.90;999.90;;;9.60;99.90;;;;;;5005774;28;20185;-75
2023/11/16 12:07:43;;;;;;;1999.90;999.90;;;10.30;99.90;;;;;;5006177;28;20409;-75
2023/11/16 12:10:09;;;;;;;1999.90;999.90;;;10.00;99.90;;;;;;5005766;28;20490;-75
2023/11/16 12:12:38;;;;;;;1999.90;999.90;;;10.00;99.90;;;;;;4988512;28;20443;-75
2023/11/16 12:15:04;;;;;;;1999.90;999.90;;;9.70;99.90;;;;;;4988917;28;20434;-75
2023/11/16 12:17:30;;;;;;;1999.90;999.90;;;9.70;99.90;;;;;;5006100;28;20408;-75
2023/11/16 12:19:58;;;;;;;1999.90;999.90;;;9.60;99.90;;;;;;4989361;28;20423;-75
2023/11/16 12:22:26;;;;;;;1999.90;999.90;;;9.80;99.90;;;;;;5006299;28;20171;-75
2023/11/16 12:24:52;;;;;;;1999.90;999.90;;;10.10;99.90;;;;;;5005943;28;20431;-75
2023/11/16 12:27:19;;;;;;;1999.90;999.90;;;;;;;;;;5006406;28;20477;-75
2023/11/16 12:30:00;;;;;;;1999.90;999.90;;;9.70;99.90;;;;;;4989177;28;20211;-75
2023/11/16 12:32:25;;;;;;;1999.90;999.90;;;9.80;99.90;;;;;;5006427;28;20688;-75
2023/11/16 12:34:54;;;;;;;1999.90;999.90;;;10.00;99.90;;;;;;5005680;28;20961;-75
2023/11/16 12:37:21;;;;;;;1999.90;999.90;;;10.20;99.90;;;;;;5006237;28;20182;-75
2023/11/16 12:39:48;;;;;;;1999.90;999.90;;;9.60;99.90;;;;;;5005599;28;20420;-74
2023/11/16 12:42:14;;;;;;;1999.90;999.90;;;;;;;;;;5008655;28;20410;-75
2023/11/16 12:44:40;;;;;;;1999.90;999.90;;;9.70;99.90;;;;;;4989724;28;20452;-75
2023/11/16 12:47:08;;;;;;;1999.90;999.90;;;10.10;99.90;;;;;;5005223;28;20416;-74
2023/11/16 12:49:34;;;;;;;1999.90;999.90;;;9.90;99.90;;;;;;5004632;28;20242;-74
2023/11/16 12:52:00;;;;;;;1999.90;999.90;;;;;;;;;;5003748;28;20402;-74
2023/11/16 12:54:25;;;;;;;1999.90;999.90;;;9.80;99.90;;;;;;4987146;28;20283;-74
2023/11/16 12:56:52;;;;;;;1999.90;999.90;;;;;;;;;;5004863;28;20434;-74
2023/11/16 12:59:18;;;;;;;1999.90;999.90;;;9.90;99.90;;;;;;5004214;28;20169;-75
2023/11/16 13:01:44;;;;;;;1999.90;999.90;;;10.90;99.90;;;;;;5005534;28;20419;-75
2023/11/16 13:04:11;;;;;;;1999.90;999.90;;;10.30;99.90;;;;;;4986844;28;20203;-74
2023/11/16 13:06:37;;;;;;;1999.90;999.90;;;10.20;99.90;;;;;;5004470;28;20503;-75
2023/11/16 13:09:03;;;;;;;1999.90;999.90;;;10.00;99.90;;;;;;4987746;28;20463;-75
2023/11/16 13:11:29;;;;;;;1999.90;999.90;;;10.10;99.90;;;;;;4991769;28;20448;-75
2023/11/16 13:13:55;;;;;;;1999.90;999.90;;;10.10;99.90;;;;;;5008948;28;20458;-75
2023/11/16 13:16:21;;;;;;;1999.90;999.90;;;10.40;99.90;;;;;;5009487;28;20263;-74
2023/11/16 13:18:49;;;;;;;1999.90;999.90;;;;;;;;;;4991775;28;20182;-75
2023/11/16 13:21:15;;;;;;;1999.90;999.90;;;10.20;99.90;;;;;;4990151;28;20426;-75
2023/11/16 13:23:45;;;;;;;1999.90;999.90;;;10.10;99.90;;;;;;5007658;28;20471;-75
2023/11/16 13:26:14;;;;;;;1999.90;999.90;;;10.00;99.90;;;;;;5007906;28;20177;-75
2023/11/16 13:28:40;;;;;;;1999.90;999.90;;;10.90;99.90;;;;;;5008405;28;20486;-75
2023/11/16 13:31:06;;;;;;;1999.90;999.90;;;10.10;99.90;;;;;;5009305;28;20411;-75
2023/11/16 13:33:31;;;;;;;1999.90;999.90;;;10.10;99.90;;;;;;5008361;28;20451;-74
2023/11/16 13:35:57;;;;;;;1999.90;999.90;;;10.20;99.90;;;;;;5009382;28;20181;-75
2023/11/16 13:38:23;;;;;;;1999.90;999.90;;;;;;;;;;5008172;28;20177;-75
2023/11/16 13:40:49;;;;;;;1999.90;999.90;;;9.90;99.90;;;;;;5009547;28;20180;-74
2023/11/16 13:43:15;;;;;;;1999.90;999.90;;;;;;;;;;5008978;28;20430;-75
2023/11/16 13:45:42;;;;;;;1999.90;999.90;;;9.80;99.90;;;;;;5008930;28;20284;-74
2023/11/16 13:48:08;;;;;;;1999.90;999.90;;;9.80;99.90;;;;;;5009064;28;20517;-75
2023/11/16 13:50:34;;;;;;;1999.90;999.90;;;10.60;99.90;;;;;;5009548;28;20418;-75
2023/11/16 13:53:00;;;;;;;1999.90;999.90;;;;;;;;;;5009768;28;20411;-75
2023/11/16 13:55:26;;;;;;;1999.90;999.90;;;;;;;;;;4991154;28;20549;-75
2023/11/16 13:57:53;;;;;;;1999.90;999.90;;;9.80;99.90;;;;;;5008098;28;20411;-75
2023/11/16 14:00:23;;;;;;;1999.90;999.90;;;10.40;99.90;;;;;;5008019;28;20431;-75
2023/11/16 14:02:48;;;;;;;1999.90;999.90;;;9.70;99.90;;;;;;5006581;28;20418;-74
2023/11/16 14:05:16;;;;;;;1999.90;999.90;;;;;;;;;;4990989;28;20438;-75
2023/11/16 14:07:42;;;;;;;1999.90;999.90;;;9.70;99.90;;;;;;4990615;28;20273;-75
2023/11/16 14:10:12;;;;;;;1999.90;999.90;;;10.20;99.90;;;;;;5008261;28;20475;-75
2023/11/16 14:12:38;;;;;;;1999.90;999.90;;;9.30;99.90;;;;;;5008281;28;20166;-74
2023/11/16 14:15:10;;;;;;;1999.90;999.90;;;10.10;99.90;;;;;;5008162;28;20432;-75
2023/11/16 14:17:37;;;;;;;1999.90;999.90;;;9.60;99.90;;;;;;5008776;28;20493;-75
2023/11/16 14:20:06;;;;;;;1999.90;999.90;;;9.80;99.90;;;;;;5007740;28;20474;-75
2023/11/16 14:22:32;;;;;;;1999.90;999.90;;;9.60;99.90;;;;;;5008847;28;20433;-75
2023/11/16 14:24:58;;;;;;;1999.90;999.90;;;10.80;99.90;;;;;;5008411;28;20428;-74
2023/11/16 14:27:24;;;;;;;1999.90;999.90;;;9.60;99.90;;;;;;5007931;28;20424;-75
2023/11/16 14:29:50;;;;;;;1999.90;999.90;;;9.80;99.90;;;;;;5007720;28;20458;-75
2023/11/16 14:32:15;;;;;;;1999.90;999.90;;;9.50;99.90;;;;;;4990453;28;20544;-75
2023/11/16 14:34:41;;;;;;;1999.90;999.90;;;9.50;99.90;;;;;;5007778;28;20192;-75
2023/11/16 14:37:08;;;;;;;1999.90;999.90;;;9.30;99.90;;;;;;4990873;28;20179;-75
2023/11/16 14:39:34;;;;;;;1999.90;999.90;;;10.50;99.90;;;;;;5007102;28;20167;-75
2023/11/16 14:41:59;;;;;;;1999.90;999.90;;;9.50;99.90;;;;;;5007979;28;20431;-75
2023/11/16 14:44:27;;;;;;;1999.90;999.90;;;9.80;99.90;;;;;;5006600;28;20191;-74
2023/11/16 14:46:53;;;;;;;1999.90;999.90;;;9.60;99.90;;;;;;5008070;28;20176;-75
2023/11/16 14:49:19;;;;;;;1999.90;999.90;;;9.60;99.90;;;;;;5008582;28;20468;-75
2023/11/16 14:51:44;;;;;;;1999.90;999.90;;;9.90;99.90;;;;;;5007578;28;20171;-75
2023/11/16 14:54:10;;;;;;;1999.90;999.90;;;;;;;;;;5009840;28;20196;-75
2023/11/16 14:56:36;;;;;;;1999.90;999.90;;;9.80;99.90;;;;;;5000791;28;20177;-72
2023/11/16 14:59:04;;;;;;;1999.90;999.90;;;9.90;99.90;;;;;;4997930;28;20839;-72